Time;durP1;ratioP1;P1;durP2;ratioP2;P2;SDS_P1;SDS_P2;PMS_P1;PMS_P2;Temp;Humidity;BMP_temperature;BMP_pressure;BME280_temperature;BME280_humidity;BME280_pressure;Samples;Min_cycle;Max_cycle;Signal;HPM_P1;HPM_P2
2021/05/16 00:02:14;;;;;;;10.97;2.10;;;11.20;99.90;;;;;;4958926;28;20457;-75
2021/05/16 00:04:41;;;;;;;12.87;2.40;;;11.20;99.90;;;;;;4921144;29;20438;-75
2021/05/16 00:07:08;;;;;;;14.38;3.97;;;11.20;99.90;;;;;;4937251;28;20798;-76
2021/05/16 00:09:35;;;;;;;9.80;3.20;;;11.10;99.90;;;;;;4935980;29;20199;-76
2021/05/16 00:12:02;;;;;;;9.50;3.50;;;11.20;99.90;;;;;;4936561;29;20467;-75
2021/05/16 00:14:30;;;;;;;6.82;2.53;;;11.20;99.90;;;;;;4935123;29;20999;-76
2021/05/16 00:16:58;;;;;;;8.93;2.73;;;11.20;99.90;;;;;;4936138;29;20218;-75
2021/05/16 00:19:25;;;;;;;5.30;2.08;;;11.10;99.90;;;;;;4934655;29;20480;-76
2021/05/16 00:21:52;;;;;;;9.87;2.40;;;11.10;99.90;;;;;;4937515;29;20238;-74
2021/05/16 00:24:19;;;;;;;14.20;3.50;;;11.10;99.90;;;;;;4936964;28;20557;-75
2021/05/16 00:26:46;;;;;;;9.60;2.73;;;11.10;99.90;;;;;;4935952;29;21047;-76
2021/05/16 00:29:13;;;;;;;9.52;2.70;;;11.10;99.90;;;;;;4935438;28;20479;-75
2021/05/16 00:31:40;;;;;;;13.80;3.33;;;11.10;99.90;;;;;;4937239;29;20200;-74
2021/05/16 00:34:07;;;;;;;10.83;2.67;;;11.10;99.90;;;;;;4944777;29;20208;-75
2021/05/16 00:36:34;;;;;;;8.95;2.42;;;11.10;99.90;;;;;;4939398;29;20552;-76
2021/05/16 00:39:02;;;;;;;7.25;2.65;;;11.10;99.90;;;;;;4921659;29;20575;-77
2021/05/16 00:41:29;;;;;;;10.87;2.53;;;11.10;99.90;;;;;;4944841;28;20714;-77
2021/05/16 00:43:56;;;;;;;12.43;3.00;;;11.10;99.90;;;;;;4957664;28;20501;-75
2021/05/16 00:46:24;;;;;;;8.60;3.08;;;11.10;99.90;;;;;;4957636;28;20768;-75
2021/05/16 00:48:51;;;;;;;9.23;2.83;;;11.00;99.90;;;;;;4956810;28;20219;-75
2021/05/16 00:51:19;;;;;;;7.37;2.70;;;11.00;99.90;;;;;;4974357;28;20462;-74
2021/05/16 00:53:47;;;;;;;6.40;1.90;;;10.90;99.90;;;;;;4957022;28;20479;-76
2021/05/16 00:56:16;;;;;;;11.07;2.70;;;11.00;99.90;;;;;;4958502;28;20464;-77
2021/05/16 00:58:44;;;;;;;8.00;2.47;;;11.00;99.90;;;;;;4972915;28;20549;-76
2021/05/16 01:01:13;;;;;;;11.40;3.00;;;11.00;99.90;;;;;;4938786;29;20196;-75
2021/05/16 01:03:45;;;;;;;7.40;2.38;;;11.00;99.90;;;;;;4936322;29;20223;-75
2021/05/16 01:06:13;;;;;;;13.55;3.95;;;11.00;99.90;;;;;;4943845;29;20962;-75
2021/05/16 01:08:44;;;;;;;10.60;3.73;;;10.90;99.90;;;;;;4947234;28;20252;-74
2021/05/16 01:11:12;;;;;;;9.30;3.47;;;10.90;99.90;;;;;;4938482;29;20793;-75
2021/05/16 01:13:39;;;;;;;4.87;2.43;;;10.90;99.90;;;;;;4955015;29;20462;-77
2021/05/16 01:16:07;;;;;;;10.60;3.10;;;10.90;99.90;;;;;;4938183;29;20454;-74
2021/05/16 01:18:34;;;;;;;7.28;2.40;;;10.80;99.90;;;;;;4960535;28;20557;-74
2021/05/16 01:21:02;;;;;;;7.97;2.77;;;10.90;99.90;;;;;;4974946;28;20261;-74
2021/05/16 01:23:37;;;;;;;14.63;3.00;;;10.80;99.90;;;;;;4957348;28;20466;-77
2021/05/16 01:26:12;;;;;;;8.43;3.38;;;10.80;99.90;;;;;;4965706;28;20479;-75
2021/05/16 01:28:42;;;;;;;9.20;2.63;;;10.80;99.90;;;;;;4941680;28;20226;-76
2021/05/16 01:31:12;;;;;;;9.82;2.40;;;10.80;99.90;;;;;;4972905;28;20192;-76
2021/05/16 01:33:39;;;;;;;8.80;2.95;;;10.80;99.90;;;;;;4988486;28;20216;-76
2021/05/16 01:36:06;;;;;;;9.10;2.60;;;10.80;99.90;;;;;;4972872;28;20344;-73
2021/05/16 01:38:34;;;;;;;6.80;2.22;;;10.80;99.90;;;;;;4956610;28;20746;-75
2021/05/16 01:41:02;;;;;;;7.47;1.98;;;10.80;99.90;;;;;;4963485;28;20258;-75
2021/05/16 01:43:37;;;;;;;5.40;2.53;;;10.80;99.90;;;;;;4954549;28;20216;-75
2021/05/16 01:46:05;;;;;;;8.40;2.30;;;10.80;99.90;;;;;;4938025;29;20213;-77
2021/05/16 01:48:32;;;;;;;5.90;1.88;;;10.70;99.90;;;;;;4936671;28;20279;-75
2021/05/16 01:50:59;;;;;;;4.00;1.52;;;10.80;99.90;;;;;;4955346;29;20190;-75
2021/05/16 01:53:27;;;;;;;6.00;2.03;;;10.80;99.90;;;;;;4954135;28;20220;-75
2021/05/16 01:55:54;;;;;;;9.10;2.10;;;10.80;99.90;;;;;;4949149;29;20186;-76
2021/05/16 01:58:22;;;;;;;7.45;2.08;;;10.70;99.90;;;;;;4953914;28;20292;-76
2021/05/16 02:00:49;;;;;;;5.28;2.15;;;10.70;99.90;;;;;;4937519;29;20637;-75
2021/05/16 02:03:32;;;;;;;5.53;1.73;;;10.60;99.90;;;;;;4926305;29;20234;-75
2021/05/16 02:06:00;;;;;;;5.63;1.77;;;10.60;99.90;;;;;;4937535;29;20293;-74
2021/05/16 02:08:27;;;;;;;10.70;2.38;;;10.60;99.90;;;;;;4952716;28;20597;-77
2021/05/16 02:10:57;;;;;;;4.72;1.88;;;10.60;99.90;;;;;;4953861;28;20220;-74
2021/05/16 02:13:25;;;;;;;4.38;1.80;;;10.60;99.90;;;;;;4968947;28;20273;-76
2021/05/16 02:16:07;;;;;;;5.00;1.70;;;10.60;99.90;;;;;;4969011;28;20578;-75
2021/05/16 02:18:35;;;;;;;4.28;1.70;;;10.60;99.90;;;;;;4953362;28;21003;-75
2021/05/16 02:21:05;;;;;;;7.40;2.40;;;10.70;99.90;;;;;;4953092;29;20562;-76
2021/05/16 02:23:36;;;;;;;4.55;2.25;;;10.60;99.90;;;;;;4936845;29;20234;-75
2021/05/16 02:26:03;;;;;;;8.82;2.20;;;10.60;99.90;;;;;;4952453;29;20220;-74
2021/05/16 02:28:30;;;;;;;7.60;2.30;;;10.60;99.90;;;;;;4968797;28;20222;-75
2021/05/16 02:31:08;;;;;;;4.18;2.22;;;10.60;99.90;;;;;;4954257;29;20181;-75
2021/05/16 02:33:36;;;;;;;8.15;2.05;;;10.60;99.90;;;;;;4936576;29;20217;-74
2021/05/16 02:36:04;;;;;;;7.65;2.10;;;10.60;99.90;;;;;;4937008;29;20260;-77
2021/05/16 02:38:34;;;;;;;7.80;2.30;;;10.50;99.90;;;;;;4936550;28;20223;-77
2021/05/16 02:41:00;;;;;;;5.93;2.38;;;10.50;99.90;;;;;;4955137;28;20259;-77
2021/05/16 02:43:28;;;;;;;4.45;2.30;;;10.50;99.90;;;;;;4972653;28;20283;-76
2021/05/16 02:45:55;;;;;;;6.95;2.75;;;10.40;99.90;;;;;;4972989;28;20230;-76
2021/05/16 02:48:22;;;;;;;6.75;2.00;;;10.30;99.90;;;;;;4986819;28;20307;-75
2021/05/16 02:50:50;;;;;;;6.55;2.90;;;10.20;99.90;;;;;;4955938;28;20195;-75
2021/05/16 02:53:23;;;;;;;5.25;2.38;;;10.20;99.90;;;;;;4955628;28;20358;-75
2021/05/16 02:55:57;;;;;;;4.25;1.73;;;10.10;99.90;;;;;;4955064;28;20199;-77
2021/05/16 02:58:24;;;;;;;4.72;1.90;;;10.10;99.90;;;;;;4955121;28;20314;-76
2021/05/16 03:00:55;;;;;;;6.18;2.40;;;10.10;99.90;;;;;;4973192;28;20189;-76
2021/05/16 03:03:22;;;;;;;8.70;2.10;;;10.00;99.90;;;;;;4954413;28;20226;-75
2021/05/16 03:05:55;;;;;;;5.32;1.90;;;10.10;99.90;;;;;;4940396;28;20210;-75
2021/05/16 03:08:25;;;;;;;10.80;3.20;;;10.00;99.90;;;;;;4939757;28;20223;-77
2021/05/16 03:10:52;;;;;;;8.98;2.50;;;10.00;99.90;;;;;;4954906;28;20298;-76
2021/05/16 03:13:19;;;;;;;5.25;2.30;;;10.00;99.90;;;;;;4972721;28;20227;-76
2021/05/16 03:15:46;;;;;;;5.40;2.15;;;10.00;99.90;;;;;;4939754;28;20179;-77
2021/05/16 03:18:14;;;;;;;7.32;2.35;;;10.10;99.90;;;;;;4971184;28;20227;-76
2021/05/16 03:20:44;;;;;;;8.27;2.20;;;10.10;99.90;;;;;;4955677;28;20672;-75
2021/05/16 03:23:13;;;;;;;6.00;2.10;;;10.10;99.90;;;;;;4954799;28;20246;-75
2021/05/16 03:25:41;;;;;;;5.07;2.20;;;10.00;99.90;;;;;;4970298;28;20194;-76
2021/05/16 03:28:08;;;;;;;6.13;2.50;;;10.00;99.90;;;;;;4972017;28;20721;-74
2021/05/16 03:30:35;;;;;;;12.32;2.40;;;10.00;99.90;;;;;;4972570;28;20187;-75
2021/05/16 03:33:02;;;;;;;9.70;2.47;;;10.10;99.90;;;;;;4971144;28;20225;-75
2021/05/16 03:35:29;;;;;;;7.25;2.80;;;10.00;99.90;;;;;;4973054;28;20241;-76
2021/05/16 03:37:56;;;;;;;5.55;2.45;;;10.10;99.90;;;;;;4954347;28;20699;-76
2021/05/16 03:40:26;;;;;;;9.43;3.05;;;10.00;99.90;;;;;;4972512;28;20188;-75
2021/05/16 03:42:53;;;;;;;8.27;2.75;;;10.00;99.90;;;;;;4954926;28;20611;-75
2021/05/16 03:45:21;;;;;;;5.68;2.88;;;9.90;99.90;;;;;;4955945;28;20197;-76
2021/05/16 03:47:50;;;;;;;6.80;2.28;;;9.90;99.90;;;;;;4970497;28;20253;-74
2021/05/16 03:50:17;;;;;;;6.88;2.25;;;9.90;99.90;;;;;;4972911;28;20658;-75
2021/05/16 03:52:44;;;;;;;8.77;2.58;;;9.90;99.90;;;;;;4953313;28;20224;-74
2021/05/16 03:55:13;;;;;;;6.32;3.08;;;9.80;99.90;;;;;;4930966;28;20674;-75
2021/05/16 03:57:40;;;;;;;8.52;2.55;;;9.90;99.90;;;;;;4953594;28;20227;-75
2021/05/16 04:00:08;;;;;;;5.00;2.83;;;9.90;99.90;;;;;;4955670;28;20597;-76
2021/05/16 04:02:38;;;;;;;6.45;2.22;;;9.90;99.90;;;;;;4971947;28;20594;-75
2021/05/16 04:05:06;;;;;;;7.47;2.72;;;10.00;99.90;;;;;;4956583;28;20257;-74
2021/05/16 04:07:33;;;;;;;7.10;3.13;;;10.00;99.90;;;;;;4971561;28;20258;-75
2021/05/16 04:10:00;;;;;;;5.18;2.85;;;9.90;99.90;;;;;;4972031;28;20605;-75
2021/05/16 04:12:30;;;;;;;17.10;4.57;;;10.00;99.90;;;;;;4972071;28;20861;-74
2021/05/16 04:14:57;;;;;;;8.25;3.17;;;10.00;99.90;;;;;;4963352;28;20199;-75
2021/05/16 04:17:24;;;;;;;6.70;2.90;;;10.00;99.90;;;;;;4951291;28;21354;-75
2021/05/16 04:19:51;;;;;;;6.57;3.78;;;10.00;99.90;;;;;;4979464;28;20651;-77
2021/05/16 04:22:18;;;;;;;7.60;2.40;;;10.00;99.90;;;;;;4960646;28;20658;-75
2021/05/16 04:24:45;;;;;;;8.10;2.87;;;10.10;99.90;;;;;;4938336;28;20447;-75
2021/05/16 04:27:12;;;;;;;7.47;2.90;;;10.20;99.90;;;;;;4949967;28;20481;-75
2021/05/16 04:29:39;;;;;;;8.20;2.60;;;10.30;99.90;;;;;;4954918;28;20203;-74
2021/05/16 04:32:06;;;;;;;7.13;2.80;;;10.30;99.90;;;;;;4954216;28;20612;-75
2021/05/16 04:34:33;;;;;;;8.40;3.27;;;10.30;99.90;;;;;;4971609;28;20837;-75
2021/05/16 04:37:00;;;;;;;9.37;2.77;;;10.40;99.90;;;;;;4962797;28;20462;-74
2021/05/16 04:39:27;;;;;;;6.50;2.20;;;10.40;99.90;;;;;;4950882;28;20481;-75
2021/05/16 04:41:54;;;;;;;9.93;2.70;;;10.40;99.90;;;;;;4956462;28;20452;-76
2021/05/16 04:44:21;;;;;;;6.83;2.60;;;10.50;99.90;;;;;;4958012;28;20477;-76
2021/05/16 04:46:48;;;;;;;4.43;2.37;;;10.50;99.90;;;;;;4957580;28;20993;-75
2021/05/16 04:49:15;;;;;;;5.37;2.67;;;10.50;99.90;;;;;;4945426;28;20994;-77
2021/05/16 04:51:42;;;;;;;7.80;2.90;;;10.60;99.90;;;;;;4957733;28;20521;-77
2021/05/16 04:54:09;;;;;;;9.27;2.90;;;10.60;99.90;;;;;;4973453;28;21018;-76
2021/05/16 04:56:36;;;;;;;6.50;2.70;;;10.70;99.90;;;;;;4957802;28;20711;-75
2021/05/16 04:59:04;;;;;;;12.53;2.47;;;10.80;99.90;;;;;;4957616;28;20541;-74
2021/05/16 05:01:31;;;;;;;5.30;2.90;;;10.70;99.90;;;;;;4975072;28;20485;-77
2021/05/16 05:03:59;;;;;;;4.80;2.60;;;10.70;99.90;;;;;;4957025;28;20474;-76
2021/05/16 05:06:29;;;;;;;9.97;2.90;;;10.80;99.90;;;;;;4989585;28;20485;-76
2021/05/16 05:08:58;;;;;;;10.03;3.27;;;10.80;99.90;;;;;;4947695;28;20519;-76
2021/05/16 05:11:30;;;;;;;10.27;2.70;;;10.80;99.90;;;;;;4938018;28;20477;-75
2021/05/16 05:13:57;;;;;;;7.60;2.73;;;10.90;99.90;;;;;;4941079;28;20805;-77
2021/05/16 05:16:26;;;;;;;4.30;2.20;;;11.00;99.90;;;;;;4957322;28;20450;-75
2021/05/16 05:19:00;;;;;;;6.10;2.60;;;11.00;99.90;;;;;;4956546;28;20744;-74
2021/05/16 05:21:28;;;;;;;9.83;2.57;;;11.00;99.90;;;;;;4957027;28;20936;-76
2021/05/16 05:23:55;;;;;;;8.70;2.87;;;11.00;99.90;;;;;;4956021;28;20474;-75
2021/05/16 05:26:22;;;;;;;7.87;3.37;;;11.10;99.90;;;;;;4972558;28;20455;-82
2021/05/16 05:28:49;;;;;;;4.67;2.37;;;11.00;99.90;;;;;;4956576;28;20803;-83
2021/05/16 05:31:16;;;;;;;7.97;2.20;;;11.00;99.90;;;;;;4956186;28;20502;-79
2021/05/16 05:33:43;;;;;;;7.13;2.87;;;11.10;99.90;;;;;;4954670;28;20908;-76
2021/05/16 05:36:11;;;;;;;7.07;3.00;;;11.00;99.90;;;;;;4956689;28;20982;-78
2021/05/16 05:38:38;;;;;;;13.67;3.27;;;11.00;99.90;;;;;;4970998;28;21549;-78
2021/05/16 05:41:06;;;;;;;5.80;2.43;;;10.90;99.90;;;;;;4974239;28;20891;-78
2021/05/16 05:43:33;;;;;;;9.00;3.33;;;10.90;99.90;;;;;;4973952;28;20462;-78
2021/05/16 05:46:00;;;;;;;5.20;2.80;;;10.90;99.90;;;;;;4956660;28;20435;-79
2021/05/16 05:48:27;;;;;;;4.40;2.60;;;10.80;99.90;;;;;;4955349;28;20574;-82
2021/05/16 05:50:53;;;;;;;7.30;2.50;;;10.80;99.90;;;;;;4973547;28;20439;-81
2021/05/16 05:53:21;;;;;;;6.63;2.47;;;10.80;99.90;;;;;;4937585;29;20848;-82
2021/05/16 05:55:48;;;;;;;9.77;2.88;;;10.80;99.90;;;;;;4955877;28;20250;-84
2021/05/16 05:58:16;;;;;;;10.10;2.23;;;10.80;99.90;;;;;;4977017;28;20627;-83
2021/05/16 06:00:43;;;;;;;8.57;2.60;;;10.80;99.90;;;;;;4958348;28;20530;-81
2021/05/16 06:03:09;;;;;;;6.53;2.08;;;10.80;99.90;;;;;;4971544;28;20486;-79
2021/05/16 06:05:37;;;;;;;5.90;2.72;;;10.70;99.90;;;;;;4956700;28;20206;-80
2021/05/16 06:08:11;;;;;;;5.32;1.80;;;10.70;99.90;;;;;;4972813;28;20226;-78
2021/05/16 06:10:44;;;;;;;6.07;3.70;;;10.70;99.90;;;;;;4948487;28;20614;-77
2021/05/16 06:13:12;;;;;;;4.93;1.85;;;10.70;99.90;;;;;;4972934;28;20473;-80
2021/05/16 06:15:39;;;;;;;4.38;1.75;;;10.70;99.90;;;;;;4965440;28;20188;-81
2021/05/16 06:18:07;;;;;;;6.47;1.90;;;10.70;99.90;;;;;;4971497;28;20633;-81
2021/05/16 06:20:34;;;;;;;6.23;2.67;;;10.70;99.90;;;;;;4971484;28;20574;-79
2021/05/16 06:23:03;;;;;;;2.77;1.60;;;10.80;99.90;;;;;;4972530;28;20468;-79
2021/05/16 06:25:30;;;;;;;5.40;1.80;;;10.80;99.90;;;;;;4955543;28;20508;-78
2021/05/16 06:27:57;;;;;;;5.50;1.80;;;10.90;99.90;;;;;;4939569;28;20541;-80
2021/05/16 06:30:24;;;;;;;4.00;2.20;;;10.80;99.90;;;;;;4956517;28;20434;-77
2021/05/16 06:32:51;;;;;;;3.20;1.80;;;10.80;99.90;;;;;;4972150;28;20475;-77
2021/05/16 06:35:21;;;;;;;4.87;2.43;;;10.80;99.90;;;;;;4973664;28;20501;-77
2021/05/16 06:37:58;;;;;;;5.17;1.97;;;10.80;99.90;;;;;;4956755;28;20959;-77
2021/05/16 06:40:25;;;;;;;5.20;1.80;;;10.90;99.90;;;;;;4964189;28;20451;-76
2021/05/16 06:42:53;;;;;;;3.60;1.97;;;10.90;99.90;;;;;;4948593;28;20502;-77
2021/05/16 06:45:20;;;;;;;3.13;1.23;;;11.00;99.90;;;;;;4968234;28;20787;-75
2021/05/16 06:47:47;;;;;;;4.90;1.50;;;11.00;99.90;;;;;;4927712;29;20467;-77
2021/05/16 06:50:15;;;;;;;4.47;1.73;;;11.00;99.90;;;;;;4947075;28;20435;-76
2021/05/16 06:52:42;;;;;;;3.60;1.33;;;11.00;99.90;;;;;;4941022;28;20454;-77
2021/05/16 06:55:11;;;;;;;3.93;1.50;;;11.10;99.90;;;;;;4969088;28;20435;-76
2021/05/16 06:57:43;;;;;;;4.03;1.23;;;11.10;99.90;;;;;;4956090;28;20478;-76
2021/05/16 07:00:12;;;;;;;5.27;1.37;;;11.20;99.90;;;;;;4956082;28;20873;-75
2021/05/16 07:02:38;;;;;;;1.40;1.30;;;11.30;99.90;;;;;;4971762;28;20458;-77
2021/05/16 07:05:06;;;;;;;2.60;0.97;;;11.40;99.90;;;;;;4973212;28;20443;-75
2021/05/16 07:07:33;;;;;;;4.60;1.50;;;11.50;99.90;;;;;;4971934;28;20544;-77
2021/05/16 07:10:03;;;;;;;1.30;0.80;;;11.40;99.90;;;;;;4972405;28;20443;-77
2021/05/16 07:12:30;;;;;;;5.53;1.03;;;11.40;99.90;;;;;;4955479;28;20548;-76
2021/05/16 07:14:57;;;;;;;2.70;0.97;;;11.40;99.90;;;;;;4971603;28;20521;-77
2021/05/16 07:17:30;;;;;;;1.97;1.27;;;11.40;99.90;;;;;;4966563;28;20526;-75
2021/05/16 07:20:06;;;;;;;4.90;1.20;;;11.40;99.90;;;;;;4956928;28;20434;-76
2021/05/16 07:22:32;;;;;;;2.03;1.10;;;11.40;99.90;;;;;;4951466;28;20543;-76
2021/05/16 07:25:00;;;;;;;5.43;1.37;;;11.50;99.90;;;;;;4952267;29;20535;-76
2021/05/16 07:27:27;;;;;;;1.20;0.80;;;11.70;99.90;;;;;;4955504;28;20466;-75
2021/05/16 07:29:54;;;;;;;2.13;1.13;;;11.80;99.90;;;;;;4939289;28;20444;-73
2021/05/16 07:32:21;;;;;;;4.03;1.63;;;11.80;99.90;;;;;;4962609;28;20489;-75
2021/05/16 07:34:48;;;;;;;2.93;1.17;;;11.90;99.90;;;;;;4954067;28;20908;-78
2021/05/16 07:37:15;;;;;;;5.60;2.30;;;12.00;99.90;;;;;;4947703;28;20482;-77
2021/05/16 07:39:42;;;;;;;1.73;1.23;;;12.10;99.90;;;;;;4967813;28;20454;-76
2021/05/16 07:42:09;;;;;;;2.77;1.40;;;12.20;99.90;;;;;;4935914;28;20956;-76
2021/05/16 07:44:39;;;;;;;4.60;1.20;;;12.30;99.90;;;;;;4983866;28;20431;-79
2021/05/16 07:47:09;;;;;;;2.17;1.40;;;12.40;99.90;;;;;;4971991;28;20593;-75
2021/05/16 07:49:36;;;;;;;1.80;1.00;;;12.50;99.90;;;;;;4963450;28;20480;-76
2021/05/16 07:52:03;;;;;;;3.03;1.33;;;12.60;99.90;;;;;;4934878;29;21076;-78
2021/05/16 07:54:30;;;;;;;3.80;1.40;;;12.80;99.90;;;;;;4950952;29;20464;-78
2021/05/16 07:57:01;;;;;;;3.40;1.00;;;12.90;99.90;;;;;;4935599;29;20448;-76
2021/05/16 07:59:28;;;;;;;3.63;1.23;;;13.00;99.90;;;;;;4954363;28;20467;-76
2021/05/16 08:01:55;;;;;;;2.87;1.23;;;13.00;99.90;;;;;;4977442;28;20446;-76
2021/05/16 08:04:23;;;;;;;6.43;1.63;;;13.00;99.90;;;;;;4940697;28;21070;-78
2021/05/16 08:06:50;;;;;;;4.63;1.60;;;13.20;99.90;;;;;;4934616;29;20965;-78
2021/05/16 08:09:17;;;;;;;5.23;1.73;;;13.40;99.90;;;;;;4948735;28;21018;-74
2021/05/16 08:11:44;;;;;;;6.53;1.93;;;13.50;99.90;;;;;;4932780;29;20516;-77
2021/05/16 08:14:11;;;;;;;7.60;1.93;;;13.70;99.90;;;;;;4969663;28;20555;-77
2021/05/16 08:16:40;;;;;;;4.50;2.20;;;13.90;99.90;;;;;;4939671;29;20542;-79
2021/05/16 08:19:08;;;;;;;4.67;1.83;;;14.10;99.90;;;;;;4954344;28;20541;-77
2021/05/16 08:21:36;;;;;;;5.43;1.60;;;14.20;99.90;;;;;;4956598;28;20527;-76
2021/05/16 08:24:05;;;;;;;5.40;1.90;;;14.20;99.90;;;;;;4955607;28;20522;-78
2021/05/16 08:26:33;;;;;;;2.50;1.50;;;14.20;99.90;;;;;;4956499;29;20902;-75
2021/05/16 08:29:01;;;;;;;5.53;1.87;;;14.40;99.90;;;;;;4938323;28;20461;-75
2021/05/16 08:31:28;;;;;;;3.53;1.70;;;14.50;99.90;;;;;;4938979;28;20444;-75
2021/05/16 08:33:55;;;;;;;3.40;1.60;;;14.60;99.90;;;;;;4953305;28;20879;-76
2021/05/16 08:36:22;;;;;;;5.40;2.03;;;14.80;99.90;;;;;;4938770;29;20489;-76
2021/05/16 08:38:50;;;;;;;6.33;1.53;;;14.90;99.90;;;;;;4974939;28;20833;-75
2021/05/16 08:41:17;;;;;;;4.40;2.00;;;14.90;99.90;;;;;;4956689;28;20469;-77
2021/05/16 08:43:44;;;;;;;5.13;1.90;;;14.80;99.90;;;;;;4953051;28;20469;-76
2021/05/16 08:46:11;;;;;;;5.10;1.80;;;14.80;99.90;;;;;;4931206;29;20467;-78
2021/05/16 08:48:39;;;;;;;5.73;2.40;;;14.90;99.90;;;;;;4951811;29;20976;-75
2021/05/16 08:51:06;;;;;;;4.27;1.87;;;15.00;99.90;;;;;;4955980;28;20430;-76
2021/05/16 08:53:37;;;;;;;8.20;2.33;;;15.10;99.90;;;;;;4938127;28;20857;-77
2021/05/16 08:56:06;;;;;;;4.23;1.70;;;14.90;99.90;;;;;;4970963;28;20868;-74
2021/05/16 08:58:33;;;;;;;5.80;2.83;;;14.70;99.90;;;;;;4938615;28;20548;-77
2021/05/16 09:01:01;;;;;;;2.83;1.63;;;14.80;99.90;;;;;;4923261;29;20426;-73
2021/05/16 09:03:31;;;;;;;5.93;1.77;;;14.80;99.90;;;;;;4931446;28;21064;-75
2021/05/16 09:05:58;;;;;;;5.63;2.00;;;15.00;99.90;;;;;;4935582;29;20829;-75
2021/05/16 09:08:31;;;;;;;7.10;2.07;;;15.20;99.90;;;;;;4932993;29;20468;-76
2021/05/16 09:11:07;;;;;;;4.47;1.90;;;15.50;99.90;;;;;;4919781;29;20903;-78
2021/05/16 09:13:36;;;;;;;7.23;1.90;;;15.60;99.90;;;;;;4935533;28;20527;-73
2021/05/16 09:16:21;;;;;;;4.40;1.67;;;15.80;99.90;;;;;;4919724;29;20462;-74
2021/05/16 09:18:54;;;;;;;5.67;2.03;;;15.80;97.60;;;;;;4944501;28;20482;-75
2021/05/16 09:21:30;;;;;;;3.73;1.50;;;15.90;98.10;;;;;;4927954;29;20487;-76
2021/05/16 09:24:03;;;;;;;3.67;1.60;;;15.90;97.30;;;;;;4928182;29;20865;-74
2021/05/16 09:27:00;;;;;;;5.37;1.77;;;16.00;96.30;;;;;;4938203;29;20491;-78
2021/05/16 09:29:33;;;;;;;4.20;1.23;;;;;;;;;;4906546;29;20484;-76
2021/05/16 09:32:03;;;;;;;2.67;1.20;;;16.10;91.30;;;;;;4918008;29;20457;-75
2021/05/16 09:34:35;;;;;;;8.13;1.53;;;16.10;92.70;;;;;;4953653;29;20483;-78
2021/05/16 09:37:10;;;;;;;4.70;1.70;;;16.00;92.40;;;;;;4954415;29;20458;-77
2021/05/16 09:39:38;;;;;;;4.97;1.67;;;15.90;91.70;;;;;;4969392;28;20476;-76
2021/05/16 09:42:14;;;;;;;2.70;1.13;;;15.80;92.90;;;;;;4952472;28;20491;-75
2021/05/16 09:44:45;;;;;;;3.77;1.43;;;15.70;92.30;;;;;;4954076;29;20534;-77
2021/05/16 09:47:45;;;;;;;3.63;1.40;;;15.70;92.50;;;;;;4946223;29;20963;-75
2021/05/16 09:50:17;;;;;;;2.97;1.50;;;15.70;94.30;;;;;;4940811;29;20530;-74
2021/05/16 09:52:58;;;;;;;3.93;1.10;;;15.80;93.60;;;;;;4953043;29;20825;-75
2021/05/16 09:55:25;;;;;;;3.87;1.40;;;15.90;92.80;;;;;;4953354;28;20457;-74
2021/05/16 09:57:56;;;;;;;5.27;1.90;;;16.00;93.70;;;;;;4952782;28;20474;-77
2021/05/16 10:00:23;;;;;;;2.23;1.07;;;16.20;94.30;;;;;;4954888;28;20475;-78
2021/05/16 10:02:51;;;;;;;5.20;2.20;;;16.40;91.90;;;;;;4931274;28;20551;-78
2021/05/16 10:05:19;;;;;;;4.83;1.67;;;16.60;92.00;;;;;;4954794;28;20514;-75
2021/05/16 10:07:49;;;;;;;4.23;1.47;;;16.60;90.70;;;;;;4953648;28;20849;-76
2021/05/16 10:10:19;;;;;;;9.43;1.90;;;16.70;90.80;;;;;;4950354;28;20503;-75
2021/05/16 10:12:49;;;;;;;5.90;1.83;;;16.70;89.90;;;;;;4940221;28;20491;-75
2021/05/16 10:15:22;;;;;;;4.97;1.53;;;16.70;90.80;;;;;;4949948;28;20433;-75
2021/05/16 10:17:53;;;;;;;3.80;1.50;;;16.70;90.40;;;;;;4944045;28;20468;-77
2021/05/16 10:20:28;;;;;;;6.43;1.90;;;16.90;90.00;;;;;;4963895;28;20439;-77
2021/05/16 10:23:03;;;;;;;4.80;1.17;;;17.10;89.10;;;;;;4951078;28;20475;-75
2021/05/16 10:25:44;;;;;;;6.13;2.07;;;17.20;84.40;;;;;;4952048;29;20454;-78
2021/05/16 10:28:19;;;;;;;7.67;2.13;;;17.10;86.60;;;;;;4944565;28;20483;-77
2021/05/16 10:31:12;;;;;;;11.83;1.93;;;16.90;83.20;;;;;;4934317;29;20515;-75
2021/05/16 10:33:40;;;;;;;3.40;1.53;;;16.70;82.50;;;;;;4952484;28;20504;-78
2021/05/16 10:39:00;;;;;;;3.50;2.27;;;16.40;82.60;;;;;;4951002;28;20498;-77
2021/05/16 10:41:33;;;;;;;4.03;1.87;;;16.30;84.20;;;;;;4952616;28;20487;-75
2021/05/16 10:44:39;;;;;;;5.77;1.73;;;16.50;76.40;;;;;;4933646;28;20498;-74
2021/05/16 10:47:07;;;;;;;3.93;1.30;;;16.50;79.60;;;;;;4903565;29;20473;-76
2021/05/16 10:49:35;;;;;;;5.50;1.40;;;16.50;77.20;;;;;;4945746;28;20570;-77
2021/05/16 10:52:29;;;;;;;4.70;2.10;;;16.50;79.60;;;;;;4953818;28;20490;-76
2021/05/16 10:54:59;;;;;;;4.13;1.50;;;16.60;81.00;;;;;;4967464;28;20464;-76
2021/05/16 10:57:36;;;;;;;9.57;2.07;;;16.60;80.90;;;;;;4951958;28;20470;-77
2021/05/16 11:00:24;;;;;;;4.53;1.90;;;16.70;81.70;;;;;;4951605;28;20436;-77
2021/05/16 11:03:00;;;;;;;3.57;1.43;;;16.70;77.80;;;;;;4950661;29;20475;-76
2021/05/16 11:05:40;;;;;;;5.53;2.27;;;16.70;77.00;;;;;;4968139;28;20487;-74
2021/05/16 11:08:17;;;;;;;4.60;2.10;;;16.70;77.80;;;;;;4941500;29;20509;-77
2021/05/16 11:10:52;;;;;;;5.97;2.00;;;16.70;80.30;;;;;;4944116;29;20444;-76
2021/05/16 11:13:31;;;;;;;3.93;1.73;;;16.80;82.50;;;;;;4936861;29;20466;-75
2021/05/16 11:16:04;;;;;;;2.80;1.50;;;16.80;79.50;;;;;;4953453;28;21004;-76
2021/05/16 11:18:48;;;;;;;4.30;1.57;;;16.70;81.40;;;;;;4939192;28;20475;-76
2021/05/16 11:21:16;;;;;;;5.60;2.20;;;16.60;82.90;;;;;;4953354;28;20474;-75
2021/05/16 11:23:45;;;;;;;3.70;1.63;;;16.50;85.20;;;;;;4951448;28;20487;-76
2021/05/16 11:26:21;;;;;;;2.43;1.57;;;16.50;89.00;;;;;;4957928;28;20507;-73
2021/05/16 11:28:59;;;;;;;3.40;1.40;;;16.60;87.30;;;;;;4935110;28;20498;-77
2021/05/16 11:31:33;;;;;;;1.57;1.37;;;16.70;87.70;;;;;;4952631;29;20432;-77
2021/05/16 11:34:05;;;;;;;4.17;1.63;;;16.90;83.80;;;;;;4924523;28;20464;-76
2021/05/16 11:36:39;;;;;;;2.13;1.37;;;16.90;81.50;;;;;;4942255;29;20518;-75
2021/05/16 11:39:08;;;;;;;6.60;1.33;;;16.90;81.80;;;;;;4951623;28;20799;-77
2021/05/16 11:41:41;;;;;;;2.03;0.80;;;16.90;83.30;;;;;;4970736;28;20454;-77
2021/05/16 11:44:13;;;;;;;3.93;1.00;;;17.10;77.90;;;;;;4935945;28;20474;-77
2021/05/16 11:46:43;;;;;;;3.20;1.10;;;17.10;77.50;;;;;;4953508;28;20466;-76
2021/05/16 11:49:12;;;;;;;1.87;1.00;;;17.20;77.30;;;;;;4959274;28;20475;-78
2021/05/16 11:51:46;;;;;;;6.57;1.90;;;17.30;78.50;;;;;;4960727;28;20431;-75
2021/05/16 11:54:13;;;;;;;4.53;1.33;;;17.30;77.30;;;;;;4956045;28;20479;-73
2021/05/16 11:56:44;;;;;;;2.90;1.27;;;17.40;77.90;;;;;;4959172;28;20510;-74
2021/05/16 11:59:12;;;;;;;4.43;1.50;;;17.60;77.60;;;;;;4958111;28;20479;-75
2021/05/16 12:01:42;;;;;;;3.00;1.10;;;17.50;76.00;;;;;;4957603;28;20447;-75
2021/05/16 12:04:13;;;;;;;4.80;1.23;;;17.50;74.00;;;;;;4964559;28;20466;-75
2021/05/16 12:06:54;;;;;;;4.20;1.10;;;17.30;78.40;;;;;;4960834;28;20459;-74
2021/05/16 12:09:26;;;;;;;2.67;1.30;;;17.30;76.00;;;;;;4956177;28;20614;-75
2021/05/16 12:11:54;;;;;;;2.53;1.27;;;17.10;79.30;;;;;;4972749;28;20903;-75
2021/05/16 12:14:24;;;;;;;3.97;1.20;;;17.00;77.50;;;;;;4955752;28;20928;-76
2021/05/16 12:17:05;;;;;;;2.87;1.23;;;16.90;79.10;;;;;;4956080;28;20549;-75
2021/05/16 12:19:37;;;;;;;3.33;1.80;;;16.80;79.60;;;;;;4940434;29;20506;-76
2021/05/16 12:22:06;;;;;;;5.03;1.60;;;16.60;82.00;;;;;;4956827;28;20445;-75
2021/05/16 12:24:36;;;;;;;2.20;1.33;;;16.50;82.10;;;;;;4971579;28;20513;-75
2021/05/16 12:27:09;;;;;;;4.50;2.40;;;16.30;82.30;;;;;;4957773;28;20456;-76
2021/05/16 12:29:38;;;;;;;2.50;1.20;;;16.20;82.40;;;;;;4961058;28;20478;-75
2021/05/16 12:32:05;;;;;;;4.00;1.60;;;16.10;83.70;;;;;;4955689;28;20443;-76
2021/05/16 12:34:33;;;;;;;3.20;1.50;;;16.00;86.30;;;;;;4957476;28;20894;-78
2021/05/16 12:37:05;;;;;;;7.33;1.70;;;;;;;;;;4956087;28;20528;-76
2021/05/16 12:39:42;;;;;;;3.27;1.60;;;15.40;96.70;;;;;;4937728;29;20465;-86
2021/05/16 12:42:25;;;;;;;1.40;1.20;;;14.90;99.90;;;;;;4953797;28;20451;-80
2021/05/16 12:45:14;;;;;;;3.93;1.40;;;14.50;99.90;;;;;;4939726;29;21008;-81
2021/05/16 12:47:53;;;;;;;4.43;1.30;;;14.30;99.90;;;;;;4954857;28;20530;-81
2021/05/16 12:50:33;;;;;;;5.03;1.20;;;14.00;99.90;;;;;;4955980;29;20836;-81
2021/05/16 12:53:25;;;;;;;3.13;0.97;;;13.80;99.90;;;;;;4959051;28;20576;-83
2021/05/16 12:55:57;;;;;;;2.70;0.93;;;13.70;99.90;;;;;;4954279;29;20886;-77
2021/05/16 13:00:58;;;;;;;2.80;0.83;;;13.80;99.90;;;;;;4955547;28;20451;-79
2021/05/16 13:03:27;;;;;;;2.60;2.10;;;13.80;99.90;;;;;;4953682;28;20463;-78
2021/05/16 13:05:54;;;;;;;1.30;1.07;;;14.00;99.90;;;;;;4946451;28;20435;-75
2021/05/16 13:08:35;;;;;;;1.97;0.77;;;14.20;99.90;;;;;;4969522;28;20464;-76